Time;durP1;ratioP1;P1;durP2;ratioP2;P2;SDS_P1;SDS_P2;PMS_P1;PMS_P2;Temp;Humidity;BMP_temperature;BMP_pressure;BME280_temperature;BME280_humidity;BME280_pressure;Samples;Min_cycle;Max_cycle;Signal;HPM_P1;HPM_P2
2024/03/17 00:01:20;;;;;;;10.10;3.38;;;;;;;;;;5112851;27;20106;-63
2024/03/17 00:03:46;;;;;;;10.27;3.47;;;;;;;;;;5101480;27;20150;-63
2024/03/17 00:06:14;;;;;;;10.23;3.78;;;;;;;;;;5117178;27;20058;-64
2024/03/17 00:08:40;;;;;;;7.93;3.28;;;;;;;;;;5109430;27;20143;-63
2024/03/17 00:11:08;;;;;;;11.77;2.80;;;;;;;;;;5127752;27;20046;-64
2024/03/17 00:13:34;;;;;;;16.05;5.72;;;;;;;;;;5100443;27;20059;-63
2024/03/17 00:16:01;;;;;;;12.77;5.38;;;;;;;;;;5083447;27;20101;-65
2024/03/17 00:18:28;;;;;;;28.02;11.55;;;;;;;;;;5074763;27;20060;-64
2024/03/17 00:20:55;;;;;;;24.52;7.20;;;;;;;;;;5089674;27;20063;-64
2024/03/17 00:23:22;;;;;;;20.23;8.73;;;;;;;;;;5094705;27;20036;-64
2024/03/17 00:25:50;;;;;;;20.02;6.70;;;;;;;;;;5088664;27;20062;-64
2024/03/17 00:28:17;;;;;;;;;;;;;;;;;;5115702;27;20039;-63
2024/03/17 00:30:44;;;;;;;8.10;3.50;;;;;;;;;;5102622;27;19973;-63
2024/03/17 00:33:10;;;;;;;10.25;3.65;;;;;;;;;;5102470;27;20054;-66
2024/03/17 00:35:36;;;;;;;12.05;4.10;;;;;;;;;;5101732;27;20059;-66
2024/03/17 00:38:06;;;;;;;13.20;3.53;;;;;;;;;;5069088;27;20052;-66
2024/03/17 00:40:33;;;;;;;8.38;3.80;;;;;;;;;;5096098;27;20071;-66
2024/03/17 00:42:58;;;;;;;9.50;3.75;;;;;;;;;;5096380;27;20151;-63
2024/03/17 00:45:27;;;;;;;13.13;3.50;;;;;;;;;;5122943;27;20135;-63
2024/03/17 00:47:53;;;;;;;10.60;3.95;;;;;;;;;;5106414;27;20148;-63
2024/03/17 00:50:19;;;;;;;11.48;4.22;;;;;;;;;;5092341;27;20158;-63
2024/03/17 00:52:45;;;;;;;9.77;3.92;;;;;;;;;;5093173;27;20125;-63
2024/03/17 00:55:12;;;;;;;11.07;3.72;;;;;;;;;;5090357;27;20166;-64
2024/03/17 00:57:38;;;;;;;9.95;4.03;;;;;;;;;;5079067;27;20051;-63
2024/03/17 01:00:06;;;;;;;10.07;4.15;;;;;;;;;;5113119;27;20080;-64
2024/03/17 01:02:33;;;;;;;8.90;3.83;;;;;;;;;;5094128;27;20059;-63
2024/03/17 01:05:00;;;;;;;15.18;4.07;;;;;;;;;;5094906;27;20062;-63
2024/03/17 01:07:26;;;;;;;11.77;4.55;;;;;;;;;;5098738;27;20063;-63
2024/03/17 01:09:54;;;;;;;23.13;10.13;;;;;;;;;;5108714;27;20053;-63
2024/03/17 01:12:19;;;;;;;14.75;6.97;;;;;;;;;;5092716;27;20066;-63
2024/03/17 01:14:46;;;;;;;12.07;4.93;;;;;;;;;;5115067;27;20050;-64
2024/03/17 01:17:14;;;;;;;14.43;4.60;;;;;;;;;;5098131;27;20255;-63
2024/03/17 01:19:44;;;;;;;10.82;4.22;;;;;;;;;;5088700;27;20062;-65
2024/03/17 01:22:10;;;;;;;12.95;4.63;;;;;;;;;;5093131;27;20058;-63
2024/03/17 01:24:39;;;;;;;11.48;3.97;;;;;;;;;;5100491;27;20055;-63
2024/03/17 01:27:06;;;;;;;10.73;4.22;;;;;;;;;;5082471;27;20447;-63
2024/03/17 01:29:33;;;;;;;10.70;3.97;;;;;;;;;;5084029;27;20054;-63
2024/03/17 01:31:58;;;;;;;10.93;4.18;;;;;;;;;;5106469;27;20063;-63
2024/03/17 01:34:25;;;;;;;6.78;3.45;;;;;;;;;;5089779;27;20107;-63
2024/03/17 01:36:52;;;;;;;8.75;3.85;;;;;;;;;;5114020;27;20220;-63
2024/03/17 01:39:21;;;;;;;12.90;3.90;;;;;;;;;;5103697;27;20091;-63
2024/03/17 01:41:46;;;;;;;10.25;4.28;;;;;;;;;;5086901;27;20051;-62
2024/03/17 01:44:23;;;;;;;10.50;4.18;;;;;;;;;;5099655;27;20963;-63
2024/03/17 01:46:50;;;;;;;11.50;4.70;;;;;;;;;;5089682;27;20152;-62
2024/03/17 01:49:16;;;;;;;13.40;3.95;;;;;;;;;;5089132;27;20230;-64
2024/03/17 01:51:44;;;;;;;10.68;4.38;;;;;;;;;;5113223;27;20049;-63
2024/03/17 01:54:13;;;;;;;17.47;4.27;;;;;;;;;;5086524;27;20158;-61
2024/03/17 01:56:39;;;;;;;14.10;3.75;;;;;;;;;;5090311;27;20070;-63
2024/03/17 01:59:07;;;;;;;13.35;4.30;;;;;;;;;;5086647;27;20060;-63
2024/03/17 02:01:32;;;;;;;13.10;3.30;;;;;;;;;;5091876;27;20082;-63
2024/03/17 02:04:00;;;;;;;11.73;3.47;;;;;;;;;;5084480;27;20059;-64
2024/03/17 02:06:25;;;;;;;9.55;3.75;;;;;;;;;;5114057;27;20179;-62
2024/03/17 02:08:54;;;;;;;8.68;3.72;;;;;;;;;;5101536;27;20108;-63
2024/03/17 02:11:26;;;;;;;8.25;3.50;;;;;;;;;;5099746;27;20047;-66
2024/03/17 02:13:55;;;;;;;10.55;3.33;;;;;;;;;;5086339;27;20173;-64
2024/03/17 02:16:21;;;;;;;9.35;3.40;;;;;;;;;;5093524;27;20163;-63
2024/03/17 02:18:47;;;;;;;9.90;3.25;;;;;;;;;;5109786;27;20062;-62
2024/03/17 02:21:13;;;;;;;8.57;3.75;;;;;;;;;;5108211;27;20059;-63
2024/03/17 02:23:42;;;;;;;8.88;3.47;;;;;;;;;;5088144;27;20062;-67
2024/03/17 02:26:08;;;;;;;9.93;2.67;;;;;;;;;;5084512;27;20051;-63
2024/03/17 02:28:41;;;;;;;7.45;3.25;;;;;;;;;;5078309;27;20057;-62
2024/03/17 02:31:09;;;;;;;7.85;3.28;;;;;;;;;;5115451;27;20051;-63
2024/03/17 02:33:36;;;;;;;15.82;3.70;;;;;;;;;;5099928;27;20066;-63
2024/03/17 02:36:06;;;;;;;8.75;3.20;;;;;;;;;;5109639;27;20143;-63
2024/03/17 02:41:19;;;;;;;6.35;2.80;;;;;;;;;;5099375;27;20983;-63
2024/03/17 02:43:50;;;;;;;5.82;2.78;;;;;;;;;;5098097;27;20051;-62
2024/03/17 02:46:19;;;;;;;7.47;2.83;;;;;;;;;;5115203;27;20050;-64
2024/03/17 02:48:47;;;;;;;10.30;3.17;;;;;;;;;;5094399;27;20047;-64
2024/03/17 02:51:15;;;;;;;;;;;;;;;;;;5115896;27;20201;-62
2024/03/17 02:53:42;;;;;;;6.72;2.65;;;;;;;;;;5098775;27;19931;-64
2024/03/17 02:58:47;;;;;;;10.27;3.40;;;;;;;;;;4988026;22;20149;-65
2024/03/17 03:01:14;;;;;;;10.15;3.67;;;;;;;;;;4978962;28;20068;-64
2024/03/17 03:03:41;;;;;;;11.50;3.40;;;;;;;;;;5018251;28;20229;-65
2024/03/17 03:06:11;;;;;;;9.88;3.17;;;;;;;;;;5016060;28;20048;-64
2024/03/17 03:08:40;;;;;;;7.22;3.28;;;;;;;;;;5033519;28;20067;-64
2024/03/17 03:11:07;;;;;;;;;;;;;;;;;;5026840;28;20053;-65
2024/03/17 03:13:34;;;;;;;8.63;3.03;;;;;;;;;;5035361;28;19994;-65
2024/03/17 03:16:02;;;;;;;11.25;3.47;;;;;;;;;;5015339;28;20065;-65
2024/03/17 03:18:32;;;;;;;9.20;3.65;;;;;;;;;;5016673;28;20054;-64
2024/03/17 03:20:58;;;;;;;9.07;4.05;;;;;;;;;;5005538;28;20123;-65
2024/03/17 03:23:25;;;;;;;7.15;2.80;;;;;;;;;;5009196;28;20052;-65
2024/03/17 03:25:56;;;;;;;10.80;3.58;;;;;;;;;;5018530;28;20111;-64
2024/03/17 03:28:23;;;;;;;7.20;2.90;;;;;;;;;;5015375;28;20065;-65
2024/03/17 03:30:51;;;;;;;8.82;3.30;;;;;;;;;;5002581;28;20135;-65
2024/03/17 03:33:19;;;;;;;11.43;3.67;;;;;;;;;;5010494;28;20096;-63
2024/03/17 03:35:46;;;;;;;9.85;3.75;;;;;;;;;;5017064;28;20069;-64
2024/03/17 03:38:14;;;;;;;8.15;3.78;;;;;;;;;;5031051;28;20053;-64
2024/03/17 03:40:41;;;;;;;6.20;3.13;;;;;;;;;;5044512;28;20049;-63
2024/03/17 03:43:08;;;;;;;8.43;3.60;;;;;;;;;;5031967;28;20072;-64
2024/03/17 03:45:36;;;;;;;11.27;4.38;;;;;;;;;;5016616;28;20056;-64
2024/03/17 03:48:03;;;;;;;10.82;4.00;;;;;;;;;;5016263;28;20053;-63
2024/03/17 03:50:31;;;;;;;15.80;4.55;;;;;;;;;;5019995;28;20057;-64
2024/03/17 03:52:59;;;;;;;8.63;3.50;;;;;;;;;;5006164;28;20056;-63
2024/03/17 03:55:25;;;;;;;8.82;4.00;;;;;;;;;;5029752;28;20270;-63
2024/03/17 03:57:53;;;;;;;12.27;3.65;;;;;;;;;;5042053;28;20057;-63
2024/03/17 04:00:21;;;;;;;12.88;3.80;;;;;;;;;;5019416;28;20058;-63
2024/03/17 04:02:49;;;;;;;12.98;3.72;;;;;;;;;;4974349;28;20049;-64
2024/03/17 04:05:17;;;;;;;8.57;3.90;;;;;;;;;;5014602;28;20081;-63
2024/03/17 04:07:46;;;;;;;11.85;4.00;;;;;;;;;;5019646;28;20053;-64
2024/03/17 04:10:14;;;;;;;13.23;4.45;;;;;;;;;;5019547;28;20063;-64
2024/03/17 04:12:41;;;;;;;9.43;4.10;;;;;;;;;;5029629;28;20195;-63
2024/03/17 04:15:10;;;;;;;10.63;3.60;;;;;;;;;;5017594;28;20057;-63
2024/03/17 04:17:37;;;;;;;8.02;3.45;;;;;;;;;;5021622;28;20061;-63
2024/03/17 04:20:04;;;;;;;9.65;3.60;;;;;;;;;;5019800;28;20053;-63
2024/03/17 04:22:31;;;;;;;10.40;3.70;;;;;;;;;;5015239;28;20183;-63
2024/03/17 04:25:14;;;;;;;10.23;4.68;;;;;;;;;;5036418;28;20057;-63
2024/03/17 04:27:41;;;;;;;11.77;4.20;;;;;;;;;;5019281;28;20380;-63
2024/03/17 04:30:11;;;;;;;12.15;4.20;;;;;;;;;;5044024;28;20049;-63
2024/03/17 04:32:37;;;;;;;9.25;4.20;;;;;;;;;;5011449;28;20041;-63
2024/03/17 04:35:08;;;;;;;13.63;4.70;;;;;;;;;;5019641;28;20119;-63
2024/03/17 04:37:38;;;;;;;7.72;3.65;;;;;;;;;;5014277;28;20059;-62
2024/03/17 04:40:10;;;;;;;12.75;4.10;;;;;;;;;;5020376;28;20052;-64
2024/03/17 04:42:38;;;;;;;11.25;4.55;;;;;;;;;;4999630;28;20132;-63
2024/03/17 04:45:09;;;;;;;9.82;4.43;;;;;;;;;;5039284;28;20440;-63
2024/03/17 04:47:38;;;;;;;12.13;4.68;;;;;;;;;;5042867;28;20875;-63
2024/03/17 04:50:08;;;;;;;14.43;3.97;;;;;;;;;;5019635;28;20107;-63
2024/03/17 04:52:35;;;;;;;9.65;4.07;;;;;;;;;;4990888;28;20061;-63
2024/03/17 04:55:04;;;;;;;8.93;4.25;;;;;;;;;;5016945;28;20076;-63
2024/03/17 04:57:32;;;;;;;13.25;4.20;;;;;;;;;;5018101;28;20069;-63
2024/03/17 04:59:59;;;;;;;10.60;4.28;;;;;;;;;;5017924;28;20069;-64
2024/03/17 05:02:27;;;;;;;11.85;4.50;;;;;;;;;;5034447;28;20057;-63
2024/03/17 05:04:54;;;;;;;10.52;4.63;;;;;;;;;;5020630;28;20116;-63
2024/03/17 05:07:21;;;;;;;9.50;4.45;;;;;;;;;;5013199;28;20367;-65
2024/03/17 05:09:49;;;;;;;9.48;4.68;;;;;;;;;;5021417;28;20429;-63
2024/03/17 05:12:16;;;;;;;9.43;4.50;;;;;;;;;;4985951;28;20051;-64
2024/03/17 05:14:44;;;;;;;13.20;4.90;;;;;;;;;;5017770;28;20101;-64
2024/03/17 05:17:11;;;;;;;12.93;4.47;;;;;;;;;;5029511;28;20148;-62
2024/03/17 05:19:39;;;;;;;11.88;4.00;;;;;;;;;;5033541;28;20405;-63
2024/03/17 05:22:06;;;;;;;11.05;4.72;;;;;;;;;;5013903;28;20054;-63
2024/03/17 05:24:32;;;;;;;8.70;3.70;;;;;;;;;;5017350;28;20076;-63
2024/03/17 05:27:00;;;;;;;9.50;4.22;;;;;;;;;;5018450;28;20067;-63
2024/03/17 05:29:26;;;;;;;15.68;4.85;;;;;;;;;;5031187;28;20103;-63
2024/03/17 05:31:54;;;;;;;10.52;4.60;;;;;;;;;;5005619;28;20052;-64
2024/03/17 05:34:23;;;;;;;10.68;5.00;;;;;;;;;;5041786;28;20077;-63
2024/03/17 05:36:49;;;;;;;13.27;4.80;;;;;;;;;;5029125;28;20134;-64
2024/03/17 05:39:16;;;;;;;11.43;4.65;;;;;;;;;;5016532;28;20064;-64
2024/03/17 05:41:44;;;;;;;12.15;5.13;;;;;;;;;;5014168;28;20061;-63
2024/03/17 05:44:11;;;;;;;11.07;4.53;;;;;;;;;;5040865;28;20061;-63
2024/03/17 05:46:36;;;;;;;12.23;4.90;;;;;;;;;;5020263;28;20080;-63
2024/03/17 05:49:06;;;;;;;15.43;5.60;;;;;;;;;;5018074;28;20242;-63
2024/03/17 05:51:33;;;;;;;10.65;4.95;;;;;;;;;;5000252;28;20064;-63
2024/03/17 05:54:00;;;;;;;11.73;4.78;;;;;;;;;;5043216;28;20118;-63
2024/03/17 05:56:26;;;;;;;11.48;4.47;;;;;;;;;;5018314;28;20115;-63
2024/03/17 05:58:53;;;;;;;13.45;5.60;;;;;;;;;;5035137;28;20057;-63
2024/03/17 06:01:22;;;;;;;12.02;4.93;;;;;;;;;;5015813;28;20067;-63
2024/03/17 06:03:49;;;;;;;12.85;5.43;;;;;;;;;;5034314;28;20171;-63
2024/03/17 06:06:17;;;;;;;14.45;6.35;;;;;;;;;;5021506;28;20084;-63
2024/03/17 06:08:44;;;;;;;15.10;4.50;;;;;;;;;;5015529;28;20057;-63
2024/03/17 06:11:12;;;;;;;11.27;4.57;;;;;;;;;;5024131;28;20064;-64
2024/03/17 06:13:38;;;;;;;10.80;4.53;;;;;;;;;;5018864;28;20058;-62
2024/03/17 06:16:06;;;;;;;13.77;5.55;;;;;;;;;;5034670;28;20108;-63
2024/03/17 06:18:33;;;;;;;14.75;5.93;;;;;;;;;;5033168;28;20118;-63
2024/03/17 06:21:00;;;;;;;13.63;5.68;;;;;;;;;;5029438;28;20072;-62
2024/03/17 06:23:28;;;;;;;12.13;5.63;;;;;;;;;;5010938;28;20159;-63
2024/03/17 06:25:56;;;;;;;10.50;5.07;;;;;;;;;;5035820;28;20158;-63
2024/03/17 06:28:23;;;;;;;12.70;4.85;;;;;;;;;;5033599;28;20076;-63
2024/03/17 06:30:59;;;;;;;11.77;5.15;;;;;;;;;;5017203;28;20210;-65
2024/03/17 06:33:26;;;;;;;13.13;5.30;;;;;;;;;;5002701;28;20719;-64
2024/03/17 06:35:53;;;;;;;11.93;5.15;;;;;;;;;;5019786;28;20061;-63
2024/03/17 06:38:20;;;;;;;11.85;5.15;;;;;;;;;;5035101;28;20184;-64
2024/03/17 06:40:51;;;;;;;11.73;5.53;;;;;;;;;;5027032;28;20071;-64
2024/03/17 06:43:19;;;;;;;12.15;5.28;;;;;;;;;;4959689;28;20056;-64
2024/03/17 06:45:55;;;;;;;11.80;5.03;;;;;;;;;;5014080;28;20060;-63
2024/03/17 06:48:22;;;;;;;11.20;4.85;;;;;;;;;;5040975;28;20061;-63
2024/03/17 06:50:49;;;;;;;15.95;5.25;;;;;;;;;;5036912;28;20066;-63
2024/03/17 06:53:16;;;;;;;11.65;5.40;;;;;;;;;;5009696;28;20051;-64
2024/03/17 06:55:43;;;;;;;11.07;4.53;;;;;;;;;;5022057;28;20176;-64
2024/03/17 06:58:11;;;;;;;11.90;5.18;;;;;;;;;;5017289;28;20061;-63
2024/03/17 07:00:38;;;;;;;8.48;4.75;;;;;;;;;;5015607;28;20072;-63
2024/03/17 07:03:05;;;;;;;13.02;5.32;;;;;;;;;;4980434;28;20049;-65
2024/03/17 07:05:33;;;;;;;13.13;5.40;;;;;;;;;;5015356;28;20932;-65
2024/03/17 07:08:00;;;;;;;10.50;4.90;;;;;;;;;;5015877;28;20193;-65
2024/03/17 07:10:27;;;;;;;10.82;4.63;;;;;;;;;;5015490;28;20162;-65
2024/03/17 07:12:54;;;;;;;10.95;5.60;;;;;;;;;;4973452;28;20069;-65
2024/03/17 07:15:22;;;;;;;12.63;4.97;;;;;;;;;;5022436;28;20185;-64
2024/03/17 07:17:51;;;;;;;16.00;5.65;;;;;;;;;;5030418;28;20105;-65
2024/03/17 07:20:17;;;;;;;;;;;;;;;;;;5017788;28;20061;-64
2024/03/17 07:22:44;;;;;;;7.68;3.90;;;;;;;;;;5002893;28;19925;-65
2024/03/17 07:25:12;;;;;;;13.82;5.00;;;;;;;;;;5042539;28;20048;-66
2024/03/17 07:27:39;;;;;;;12.48;4.90;;;;;;;;;;5021246;28;20138;-65
2024/03/17 07:30:08;;;;;;;10.63;5.07;;;;;;;;;;5019943;28;20050;-65
2024/03/17 07:32:37;;;;;;;14.93;5.85;;;;;;;;;;4979593;28;20060;-65
2024/03/17 07:35:08;;;;;;;11.35;4.93;;;;;;;;;;5015792;28;20064;-65
2024/03/17 07:37:39;;;;;;;14.77;5.75;;;;;;;;;;5034958;28;20127;-65
2024/03/17 07:40:10;;;;;;;12.27;5.53;;;;;;;;;;5022728;28;20046;-65
2024/03/17 07:42:38;;;;;;;14.40;4.97;;;;;;;;;;4999982;28;20060;-65
2024/03/17 07:45:14;;;;;;;21.88;5.18;;;;;;;;;;5016655;28;20185;-63
2024/03/17 07:47:43;;;;;;;13.25;5.60;;;;;;;;;;5021646;28;20136;-64
2024/03/17 07:50:12;;;;;;;12.27;5.00;;;;;;;;;;5036803;28;20040;-64
2024/03/17 07:52:39;;;;;;;13.68;5.47;;;;;;;;;;5014401;28;20064;-63
2024/03/17 07:55:11;;;;;;;13.38;5.82;;;;;;;;;;5036223;28;20053;-64
2024/03/17 07:57:37;;;;;;;12.95;5.43;;;;;;;;;;5020636;28;20053;-63
2024/03/17 08:00:15;;;;;;;13.57;5.25;;;;;;;;;;5033659;28;20064;-64
2024/03/17 08:02:46;;;;;;;12.03;4.43;;;;;;;;;;5006850;28;20165;-64
2024/03/17 08:05:19;;;;;;;13.77;5.13;;;;;;;;;;5034721;28;21384;-63
2024/03/17 08:07:46;;;;;;;14.82;4.25;;;;;;;;;;5035209;28;20061;-64
2024/03/17 08:10:13;;;;;;;12.30;5.07;;;;;;;;;;5018574;28;20156;-65
2024/03/17 08:12:43;;;;;;;10.50;4.80;;;;;;;;;;4983792;28;20087;-64
2024/03/17 08:15:10;;;;;;;11.18;5.00;;;;;;;;;;5016189;28;20319;-65
2024/03/17 08:17:40;;;;;;;9.32;4.85;;;;;;;;;;5018481;28;20049;-63
2024/03/17 08:20:12;;;;;;;11.40;4.82;;;;;;;;;;5019638;28;20072;-64
2024/03/17 08:22:40;;;;;;;13.60;4.63;;;;;;;;;;4984810;28;20064;-64
2024/03/17 08:25:15;;;;;;;13.63;4.57;;;;;;;;;;5011220;28;20057;-64
2024/03/17 08:27:41;;;;;;;12.27;4.40;;;;;;;;;;5018101;28;20088;-64
2024/03/17 08:30:13;;;;;;;7.63;3.83;;;;;;;;;;5019413;28;20544;-64
2024/03/17 08:32:40;;;;;;;9.80;4.00;;;;;;;;;;4999036;28;20057;-64
2024/03/17 08:35:14;;;;;;;10.73;4.43;;;;;;;;;;5037966;28;20144;-64
2024/03/17 08:37:41;;;;;;;10.93;4.15;;;;;;;;;;5034513;28;20142;-64
2024/03/17 08:40:14;;;;;;;16.50;4.55;;;;;;;;;;5033125;28;20101;-64
2024/03/17 08:42:41;;;;;;;10.40;3.83;;;;;;;;;;5005777;28;20484;-65
2024/03/17 08:45:14;;;;;;;11.35;4.28;;;;;;;;;;5017601;28;20061;-64
2024/03/17 08:47:43;;;;;;;9.00;3.95;;;;;;;;;;5017891;28;20497;-63
2024/03/17 08:50:17;;;;;;;11.98;3.92;;;;;;;;;;5023408;28;20084;-64
2024/03/17 08:52:44;;;;;;;9.48;4.38;;;;;;;;;;5008997;28;20052;-64
2024/03/17 08:55:14;;;;;;;10.50;4.40;;;;;;;;;;5017373;28;20060;-64
2024/03/17 08:57:43;;;;;;;10.80;4.60;;;;;;;;;;5037111;28;20057;-64
2024/03/17 09:00:11;;;;;;;9.68;4.60;;;;;;;;;;5015229;28;20049;-64
2024/03/17 09:02:38;;;;;;;14.77;5.20;;;;;;;;;;4999340;28;20065;-64
2024/03/17 09:05:06;;;;;;;10.02;4.07;;;;;;;;;;5016775;28;20088;-64
2024/03/17 09:07:35;;;;;;;7.55;3.83;;;;;;;;;;5021230;28;20052;-64
2024/03/17 09:10:02;;;;;;;11.98;4.32;;;;;;;;;;5018124;28;20053;-64
2024/03/17 09:12:29;;;;;;;11.75;4.25;;;;;;;;;;4991638;28;20084;-66
2024/03/17 09:14:55;;;;;;;9.88;4.43;;;;;;;;;;5035139;28;20057;-65
2024/03/17 09:17:22;;;;;;;11.25;4.28;;;;;;;;;;5028485;28;20147;-64
2024/03/17 09:19:51;;;;;;;10.32;4.38;;;;;;;;;;5016042;28;20061;-64
2024/03/17 09:22:24;;;;;;;8.80;3.75;;;;;;;;;;4972710;28;20066;-64
2024/03/17 09:24:52;;;;;;;13.07;4.80;;;;;;;;;;5011176;28;20081;-64
2024/03/17 09:27:21;;;;;;;14.13;3.67;;;;;;;;;;5011001;28;20932;-64
2024/03/17 09:29:48;;;;;;;9.25;3.75;;;;;;;;;;5021249;28;20072;-65
2024/03/17 09:32:17;;;;;;;13.75;3.95;;;;;;;;;;4998838;28;20086;-64
2024/03/17 09:34:48;;;;;;;10.88;3.83;;;;;;;;;;5013954;28;20056;-65
2024/03/17 09:37:15;;;;;;;11.18;3.65;;;;;;;;;;5036409;28;20101;-65
2024/03/17 09:39:48;;;;;;;8.90;3.78;;;;;;;;;;5031635;28;20072;-64
2024/03/17 09:42:19;;;;;;;10.75;3.50;;;;;;;;;;5012624;28;20065;-64
2024/03/17 09:44:47;;;;;;;10.23;4.30;;;;;;;;;;5019442;28;20120;-65
2024/03/17 09:47:20;;;;;;;9.32;3.85;;;;;;;;;;5014865;28;20057;-64
2024/03/17 09:49:48;;;;;;;10.43;3.95;;;;;;;;;;5038600;28;20099;-64
2024/03/17 09:52:20;;;;;;;8.23;3.72;;;;;;;;;;4990818;28;20084;-65
2024/03/17 09:54:48;;;;;;;8.77;3.80;;;;;;;;;;5032747;28;20053;-64
2024/03/17 09:57:18;;;;;;;10.95;4.30;;;;;;;;;;5017324;28;20076;-64
2024/03/17 09:59:54;;;;;;;11.60;4.05;;;;;;;;;;5026398;28;20065;-66
2024/03/17 10:02:23;;;;;;;13.13;3.65;;;;;;;;;;5021528;28;20064;-64
2024/03/17 10:04:50;;;;;;;12.98;3.80;;;;;;;;;;5019180;28;20054;-66
2024/03/17 10:07:15;;;;;;;9.32;2.78;;;;;;;;;;5019118;28;20128;-65
2024/03/17 10:09:44;;;;;;;9.70;4.60;;;;;;;;;;5037778;28;20270;-65
2024/03/17 10:12:32;;;;;;;7.70;3.70;;;;;;;;;;4980012;28;20058;-65
2024/03/17 10:15:10;;;;;;;;;;;;;;;;;;;;;
2024/03/17 10:17:40;;;;;;;11.25;4.00;;;;;;;;;;5036038;28;20091;-64
2024/03/17 10:20:16;;;;;;;8.63;3.85;;;;;;;;;;5021896;28;20064;-64
2024/03/17 10:23:02;;;;;;;12.98;4.32;;;;;;;;;;5003085;28;20048;-65
2024/03/17 10:25:42;;;;;;;7.18;3.40;;;;;;;;;;5019260;28;20068;-65
2024/03/17 10:28:21;;;;;;;9.88;3.63;;;;;;;;;;5044382;28;20051;-64
2024/03/17 10:31:01;;;;;;;11.10;4.25;;;;;;;;;;5016906;28;20057;-67
2024/03/17 10:33:28;;;;;;;10.10;3.70;;;;;;;;;;5002596;28;20045;-67
2024/03/17 10:36:01;;;;;;;8.13;3.38;;;;;;;;;;5018681;28;20061;-67
2024/03/17 10:38:31;;;;;;;8.23;3.80;;;;;;;;;;5019728;28;20104;-67
2024/03/17 10:40:58;;;;;;;14.05;3.92;;;;;;;;;;5044435;28;20159;-66
2024/03/17 10:43:25;;;;;;;9.27;4.05;;;;;;;;;;4985566;28;21056;-66
2024/03/17 10:45:55;;;;;;;12.13;3.75;;;;;;;;;;5021252;28;20060;-67
2024/03/17 10:48:23;;;;;;;9.38;3.92;;;;;;;;;;5021103;28;20044;-66
2024/03/17 10:50:52;;;;;;;;;;;;;;;;;;5043370;28;20076;-66
2024/03/17 10:53:26;;;;;;;10.25;3.83;;;;;;;;;;5008370;28;20015;-68
2024/03/17 10:56:06;;;;;;;10.43;4.35;;;;;;;;;;5045419;28;20334;-66
2024/03/17 10:58:37;;;;;;;7.90;3.47;;;;;;;;;;5038120;28;20053;-67
2024/03/17 11:01:05;;;;;;;9.68;4.13;;;;;;;;;;5018642;28;20111;-65
2024/03/17 11:03:36;;;;;;;7.25;3.08;;;;;;;;;;5014013;28;20056;-67
2024/03/17 11:06:05;;;;;;;7.25;3.58;;;;;;;;;;5044847;28;20061;-66
2024/03/17 11:08:33;;;;;;;11.13;4.10;;;;;;;;;;5021201;28;20072;-67
2024/03/17 11:11:08;;;;;;;12.10;3.92;;;;;;;;;;5019203;28;20058;-66
2024/03/17 11:13:39;;;;;;;15.93;5.07;;;;;;;;;;5023682;28;20056;-66
2024/03/17 11:16:26;;;;;;;8.02;3.97;;;;;;;;;;5020771;28;20091;-66
2024/03/17 11:18:54;;;;;;;14.02;4.50;;;;;;;;;;5019772;28;20064;-67
2024/03/17 11:21:25;;;;;;;9.50;4.10;;;;;;;;;;5034051;28;20139;-66
2024/03/17 11:24:03;;;;;;;12.60;4.85;;;;;;;;;;4991573;28;20057;-66
2024/03/17 11:26:32;;;;;;;7.68;3.30;;;;;;;;;;5020724;28;20119;-65
2024/03/17 11:29:06;;;;;;;8.45;4.03;;;;;;;;;;5022898;28;20069;-66
2024/03/17 11:31:46;;;;;;;8.82;3.80;;;;;;;;;;5021081;28;20048;-66
2024/03/17 11:34:39;;;;;;;9.05;4.03;;;;;;;;;;4989742;28;20053;-67
2024/03/17 11:37:08;;;;;;;11.63;5.10;;;;;;;;;;5017442;28;20056;-67
2024/03/17 11:39:56;;;;;;;10.00;4.15;;;;;;;;;;5021393;28;20060;-67
2024/03/17 11:42:29;;;;;;;11.77;4.45;;;;;;;;;;5022905;28;20417;-67
2024/03/17 11:45:21;;;;;;;8.10;4.13;;;;;;;;;;5027989;28;20050;-66
2024/03/17 11:47:48;;;;;;;10.70;3.88;;;;;;;;;;5045042;28;20111;-66
2024/03/17 11:50:18;;;;;;;11.90;4.07;;;;;;;;;;5022423;28;20053;-68
2024/03/17 11:52:45;;;;;;;12.95;4.20;;;;;;;;;;5018698;28;20067;-66
2024/03/17 11:55:22;;;;;;;12.30;5.35;;;;;;;;;;5015946;28;20057;-67
2024/03/17 11:57:55;;;;;;;11.60;4.32;;;;;;;;;;5022449;28;20075;-67
2024/03/17 12:00:25;;;;;;;10.63;3.97;;;;;;;;;;5019076;28;20040;-67
2024/03/17 12:02:53;;;;;;;10.63;4.72;;;;;;;;;;5007414;28;20064;-67
2024/03/17 12:05:21;;;;;;;10.52;4.15;;;;;;;;;;5034166;28;20053;-67
2024/03/17 12:07:47;;;;;;;8.07;3.47;;;;;;;;;;5029442;28;20049;-67
2024/03/17 12:10:18;;;;;;;12.82;4.40;;;;;;;;;;5023948;28;20057;-66
2024/03/17 12:12:47;;;;;;;11.20;4.72;;;;;;;;;;4991564;28;20058;-66
2024/03/17 12:15:21;;;;;;;11.88;3.83;;;;;;;;;;5021554;28;20959;-68
2024/03/17 12:17:53;;;;;;;12.57;4.93;;;;;;;;;;5040636;28;20057;-66
2024/03/17 12:20:23;;;;;;;9.68;3.95;;;;;;;;;;5024236;28;20130;-66
2024/03/17 12:22:50;;;;;;;9.88;4.60;;;;;;;;;;5010586;28;20050;-67
2024/03/17 12:25:26;;;;;;;10.70;4.50;;;;;;;;;;5020994;28;20053;-66
2024/03/17 12:27:52;;;;;;;10.25;4.07;;;;;;;;;;5025966;28;20037;-67
2024/03/17 12:30:20;;;;;;;11.93;4.72;;;;;;;;;;5025379;28;20048;-67
2024/03/17 12:32:46;;;;;;;;;;;;;;;;;;5028570;28;20058;-67
2024/03/17 12:35:25;;;;;;;8.48;4.10;;;;;;;;;;5019782;28;19929;-68
2024/03/17 12:37:56;;;;;;;;;;;;;;;;;;5049586;28;20057;-67
2024/03/17 12:40:25;;;;;;;80.93;36.13;;;;;;;;;;5025105;28;19928;-67
2024/03/17 12:42:51;;;;;;;13.82;6.07;;;;;;;;;;5004158;28;20065;-66
2024/03/17 12:45:22;;;;;;;13.70;5.60;;;;;;;;;;5016599;28;20107;-67
2024/03/17 12:47:48;;;;;;;18.63;5.60;;;;;;;;;;5046884;28;20053;-66
2024/03/17 12:50:18;;;;;;;13.35;4.68;;;;;;;;;;5023213;28;20057;-67
2024/03/17 12:52:53;;;;;;;9.88;4.32;;;;;;;;;;5010634;28;20123;-66
2024/03/17 13:01:07;;;;;;;12.70;5.80;;;;;;;;;;5028948;28;20151;-67
2024/03/17 13:03:35;;;;;;;8.15;4.35;;;;;;;;;;5027590;28;20117;-66
2024/03/17 13:06:06;;;;;;;11.13;4.75;;;;;;;;;;5021452;28;20123;-66
2024/03/17 13:08:35;;;;;;;10.50;4.35;;;;;;;;;;5025442;28;20060;-66
2024/03/17 13:11:16;;;;;;;11.63;3.90;;;;;;;;;;5036153;28;20129;-66
2024/03/17 13:13:46;;;;;;;11.10;4.35;;;;;;;;;;5012685;28;20052;-71
2024/03/17 13:16:16;;;;;;;8.20;3.72;;;;;;;;;;5036838;28;20052;-71
2024/03/17 13:18:46;;;;;;;9.20;4.30;;;;;;;;;;5024589;28;20057;-69
2024/03/17 13:21:19;;;;;;;9.75;4.15;;;;;;;;;;5018060;28;20073;-68
2024/03/17 13:23:46;;;;;;;9.50;4.45;;;;;;;;;;5013433;28;20057;-69
2024/03/17 13:26:15;;;;;;;8.95;4.47;;;;;;;;;;5023158;28;20057;-69
2024/03/17 13:28:42;;;;;;;10.52;4.13;;;;;;;;;;5022530;28;20088;-68
2024/03/17 13:31:12;;;;;;;9.90;4.90;;;;;;;;;;5017959;28;20049;-70
2024/03/17 13:33:44;;;;;;;9.77;4.03;;;;;;;;;;5025514;28;20061;-68
2024/03/17 13:36:10;;;;;;;10.68;4.80;;;;;;;;;;5046362;28;20053;-68
2024/03/17 13:38:39;;;;;;;10.25;4.00;;;;;;;;;;5025267;28;20099;-67
2024/03/17 13:41:11;;;;;;;14.20;5.10;;;;;;;;;;5019834;28;20057;-67
2024/03/17 13:43:38;;;;;;;10.20;5.30;;;;;;;;;;5011146;28;20067;-67
2024/03/17 13:46:07;;;;;;;12.80;4.65;;;;;;;;;;5022823;28;20061;-67
2024/03/17 13:48:41;;;;;;;9.57;4.72;;;;;;;;;;5034122;28;20114;-67
2024/03/17 13:51:13;;;;;;;8.63;4.40;;;;;;;;;;5018660;28;20235;-66
2024/03/17 13:53:48;;;;;;;11.43;4.80;;;;;;;;;;4988252;28;20060;-69
2024/03/17 13:56:16;;;;;;;9.13;4.22;;;;;;;;;;5030618;28;20092;-66
2024/03/17 13:58:43;;;;;;;9.38;4.22;;;;;;;;;;5021429;28;20063;-67
2024/03/17 14:01:10;;;;;;;11.38;3.97;;;;;;;;;;5015600;28;20053;-67
2024/03/17 14:03:42;;;;;;;12.70;4.53;;;;;;;;;;4979358;28;20084;-68
2024/03/17 14:06:12;;;;;;;10.70;4.25;;;;;;;;;;5017114;28;20101;-66
2024/03/17 14:08:42;;;;;;;10.02;3.95;;;;;;;;;;5042596;28;20148;-67
2024/03/17 14:11:10;;;;;;;10.43;4.22;;;;;;;;;;5019261;28;20084;-67
2024/03/17 14:13:40;;;;;;;9.23;4.35;;;;;;;;;;4955023;28;20060;-67
2024/03/17 14:16:12;;;;;;;10.40;4.20;;;;;;;;;;5016331;28;20125;-68
2024/03/17 14:18:39;;;;;;;10.02;3.85;;;;;;;;;;5020397;28;20065;-66
2024/03/17 14:21:07;;;;;;;10.32;3.42;;;;;;;;;;5019491;28;20132;-66
2024/03/17 14:23:37;;;;;;;14.65;6.30;;;;;;;;;;4970198;28;20072;-68
2024/03/17 14:26:04;;;;;;;7.63;3.63;;;;;;;;;;5019106;28;20059;-66
2024/03/17 14:28:36;;;;;;;11.93;3.85;;;;;;;;;;5021900;28;20053;-66
2024/03/17 14:31:04;;;;;;;11.77;3.53;;;;;;;;;;5042188;28;20052;-69
2024/03/17 14:33:31;;;;;;;12.43;5.20;;;;;;;;;;5005363;28;20115;-67
2024/03/17 14:35:58;;;;;;;9.50;3.65;;;;;;;;;;5027319;28;20088;-68
2024/03/17 14:38:27;;;;;;;10.90;3.92;;;;;;;;;;5038975;28;20064;-65
2024/03/17 14:41:00;;;;;;;11.32;3.53;;;;;;;;;;5020317;28;20131;-66
2024/03/17 14:43:27;;;;;;;11.32;3.83;;;;;;;;;;4950879;28;20067;-67
2024/03/17 14:46:00;;;;;;;10.70;4.80;;;;;;;;;;5024050;28;20045;-68
2024/03/17 14:48:30;;;;;;;7.70;3.63;;;;;;;;;;5022565;28;20163;-65
2024/03/17 14:50:57;;;;;;;8.98;3.53;;;;;;;;;;5021177;28;20064;-66
2024/03/17 14:53:25;;;;;;;8.70;3.80;;;;;;;;;;4961659;28;20080;-67
2024/03/17 14:55:54;;;;;;;7.68;3.53;;;;;;;;;;4988759;28;20052;-66
2024/03/17 14:58:21;;;;;;;9.45;3.90;;;;;;;;;;5043819;28;20061;-66
2024/03/17 15:00:48;;;;;;;8.13;3.67;;;;;;;;;;5038078;28;20061;-65